Humidity-temperature Sensor

Selected Measurement Type: Relative Humidity

 
Relative Humidity [%]     6 entries per hour
Showing data from 8/21/2022 (00:00:00 Z) to 8/20/2022 (00:01:00 Z)
Previous Next [ Day | 3-Days | 7-Days ]
First Last
Prev [ Day | 3-Days | 7-Days ] Next
First Last

Start Time:     :
End Time:     :     
Time (in GMT) :00 :50 :40 :30 :20 :10
Previous Next [ Day | 3-Days | 7-Days ]
First Last
Prev [ Day | 3-Days | 7-Days ] Next
First Last


123 => good data
MM => data is determined as missing
-- => data not received/configured
Back to Top Back to Top
8/21/2022 00:00 to 23:10 91.13 90.41 90.53 90.72 91.17 91.42
8/20/2022 23:00 to 22:10 92.01 92.28 91.79 91.77 91.72 91.91
8/20/2022 22:00 to 21:10 92.30 92.48 92.77 93.41 93.90 94.00
8/20/2022 21:00 to 20:10 93.31 92.30 92.22 93.49 94.66 95.42
8/20/2022 20:00 to 19:10 95.18 94.35 93.29 94.17 94.68 95.09
8/20/2022 19:00 to 18:10 95.36 95.59 96.00 96.20 96.61 96.88
8/20/2022 18:00 to 17:10 97.15 97.40 97.74 98.38 98.79 99.33
8/20/2022 17:00 to 16:10 99.53 99.41 99.22 98.67 98.09 97.79
8/20/2022 16:00 to 15:10 96.88 96.33 95.01 93.37 93.24 92.98
8/20/2022 15:00 to 14:10 93.02 93.41 94.60 95.34 95.40 95.07
8/20/2022 14:00 to 13:10 94.50 93.57 93.37 94.03 94.72 94.95
8/20/2022 13:00 to 12:10 95.34 95.48 95.73 96.08 95.67 94.42
8/20/2022 12:00 to 11:10 94.66 95.05 95.57 96.22 96.37 96.51
8/20/2022 11:00 to 10:10 96.22 96.41 96.80 97.01 96.57 95.53
8/20/2022 10:00 to 9:10 94.81 94.03 93.80 94.09 94.15 94.95
8/20/2022 09:00 to 8:10 94.99 94.66 95.51 96.20 96.92 97.60
8/20/2022 08:00 to 7:10 97.95 97.99 97.64 97.58 97.83 98.03
8/20/2022 07:00 to 6:10 98.22 98.30 98.67 98.53 98.69 98.69
8/20/2022 06:00 to 5:10 98.55 98.73 98.79 99.20 98.83 98.42
8/20/2022 05:00 to 4:10 98.09 98.14 98.71 99.10 99.31 99.06
8/20/2022 04:00 to 3:10 99.14 99.12 99.31 99.59 99.90 99.88
8/20/2022 03:00 to 2:10 100.03 100.21 100.15 100.19 100.40 100.50
8/20/2022 02:00 to 1:10 100.87 100.91 100.91 100.91 100.91 100.91
8/20/2022 01:00 to 0:10 100.91 100.91 100.91 100.91 100.91 100.91